Weather at Livermore Municipal Airport

Public forecast

Using degrees Fahrenheit for public forecast. Weather courtesy of forecast.io.

Current aviation weather report (METAR) for Livermore Municipal Airport

Retrieved 2020/12/05 04:53 UTC (23 minutes ago):

KLVK 050453Z AUTO 10003KT 10SM CLR 07/M03 A3020 RMK AO2 SLP227 T00721028

Aviation forecast (TAF) for Livermore Municipal Airport

Retrieved 2020-12-05 00:33 UTC (5 hours ago):

TAF KLVK 042331Z 0500/0524 07007KT P6SM FEW200 FM050200 VRB03KT P6SM FEW180 FM052000 06007KT P6SM FEW200